Terminal Aerodrome Forecast
Issued by NWS

Home | Current Version | Previous Version | Text Only | Print | Product List | Glossary On
Versions: 1 2 3 4 5 6 7 8 9 10 11 12 13 14 15 16 17 18 19 20 21 22 23 24 25 26 27 28 29 30 31 32 33 34 35 36 37 38
000
FTAK31 PANC 020529
TAFAHO
TAF
PAHO 020529Z 0206/0306 VRB05KT P6SM SCT200
     FM020800 VRB06KT P6SM VCFG SKC
      TEMPO 0210/0212 3/4SM BR BKN002
     FM021200 VRB03KT 1SM BR BKN002
     FM021700 VRB03KT P6SM VCFG SCT004
     FM022100 24010KT P6SM FEW060 BKN200=

USA.gov is the U.S. government's official web portal to all federal, state and local government web resources and services.